3CA9 weather

Clark Ranch Airport
Soledad, California, United States

Public forecast

Using degrees Fahrenheit for public forecast. Weather courtesy of forecast.io.

Closest aviation weather report (METAR) to Clark Ranch Airport

Closest report is Salinas Municipal Airport, 23.0 nm (42.5 km) NW. Retrieved 2019/10/17 06:53 UTC (50 minutes ago):

KSNS 170653Z AUTO 35007KT 10SM CLR 15/09 A2992 RMK AO2 SLP140 T01500094

Closest aviation forecast (TAF) to Clark Ranch Airport

Closest forecast is Salinas Municipal Airport, 23.0 nm (42.5 km) NW. Retrieved 2019/10/17 06:24 UTC (1 hour ago):

TAF KSNS 170521Z 1706/1806 36004KT P6SM BKN150 FM170800 VRB03KT P6SM SCT025 BKN150 FM171000 VRB04KT P6SM BKN015 FM171300 31008KT 6SM BR OVC007 FM171700 29006KT P6SM SCT015 BKN200 FM171900 29012KT P6SM SCT200 FM180400 32006KT P6SM SKC